createdAt,value
2019-04-21T00:00:26.005Z,8.10
2019-04-21T00:02:55.429Z,8.00
2019-04-21T00:05:43.179Z,7.80
2019-04-21T00:08:24.882Z,7.70
2019-04-21T00:10:50.003Z,7.60
2019-04-21T00:13:14.884Z,7.60
2019-04-21T00:15:37.828Z,7.50
2019-04-21T00:18:08.612Z,7.40
2019-04-21T00:20:43.912Z,7.40
2019-04-21T00:23:26.818Z,7.30
2019-04-21T00:25:50.026Z,7.40
2019-04-21T00:28:34.651Z,7.30
2019-04-21T00:31:00.507Z,7.10
2019-04-21T00:33:17.837Z,7.00
2019-04-21T00:35:52.048Z,7.00
2019-04-21T00:38:32.458Z,7.00
2019-04-21T00:41:05.515Z,7.00
2019-04-21T00:43:29.436Z,7.00
2019-04-21T00:45:55.596Z,6.90
2019-04-21T00:48:36.436Z,7.00
2019-04-21T00:53:51.575Z,6.90
2019-04-21T00:56:15.382Z,6.80
2019-04-21T00:58:48.648Z,6.70
2019-04-21T01:01:14.958Z,6.50
2019-04-21T01:03:53.765Z,6.60
2019-04-21T01:06:25.453Z,6.50
2019-04-21T01:08:51.800Z,6.60
2019-04-21T01:11:18.870Z,6.50
2019-04-21T01:13:51.984Z,6.50
2019-04-21T01:16:27.075Z,6.50
2019-04-21T01:18:49.285Z,6.40
2019-04-21T01:21:13.449Z,6.30
2019-04-21T01:23:33.643Z,6.20
2019-04-21T01:26:20.964Z,6.10
2019-04-21T01:28:49.564Z,6.10
2019-04-21T01:31:22.955Z,6.10
2019-04-21T01:33:57.086Z,6.30
2019-04-21T01:36:24.173Z,6.40
2019-04-21T01:39:01.061Z,6.50
2019-04-21T01:41:35.220Z,6.50
2019-04-21T01:43:57.841Z,6.40
2019-04-21T01:46:25.732Z,6.20
2019-04-21T01:48:57.078Z,6.10
2019-04-21T01:51:28.099Z,6.10
2019-04-21T01:54:23.493Z,6.10
2019-04-21T01:57:05.877Z,6.10
2019-04-21T01:59:32.079Z,5.90
2019-04-21T02:02:08.126Z,5.90
2019-04-21T02:04:41.539Z,5.80
2019-04-21T02:07:11.477Z,5.90
2019-04-21T02:09:38.343Z,5.90
2019-04-21T02:12:09.830Z,5.90
2019-04-21T02:14:45.828Z,6.00
2019-04-21T02:17:14.771Z,5.80
2019-04-21T02:19:37.850Z,5.70
2019-04-21T02:22:11.203Z,5.60
2019-04-21T02:24:49.633Z,5.50
2019-04-21T02:27:19.191Z,5.40
2019-04-21T02:29:47.109Z,5.40
2019-04-21T02:32:33.425Z,5.30
2019-04-21T02:35:09.373Z,5.30
2019-04-21T02:37:38.385Z,5.20
2019-04-21T02:40:05.207Z,5.20
2019-04-21T02:45:00.301Z,5.40
2019-04-21T02:50:13.413Z,5.30
2019-04-21T02:52:35.624Z,5.30
2019-04-21T02:55:02.807Z,5.30
2019-04-21T02:57:43.831Z,5.20
2019-04-21T03:00:15.981Z,5.30
2019-04-21T03:02:48.359Z,5.30
2019-04-21T03:05:28.816Z,5.50
2019-04-21T03:10:34.763Z,5.30
2019-04-21T03:18:22.607Z,5.10
2019-04-21T03:20:35.785Z,5.00
2019-04-21T03:23:07.653Z,5.00
2019-04-21T03:25:47.391Z,4.90
2019-04-21T03:28:11.930Z,4.90
2019-04-21T03:38:17.156Z,4.70
2019-04-21T03:40:32.607Z,4.70
2019-04-21T03:45:46.573Z,4.60
2019-04-21T03:48:11.485Z,4.80
2019-04-21T04:06:28.244Z,4.60
2019-04-21T04:09:19.304Z,4.50
2019-04-21T04:16:50.444Z,4.40
2019-04-21T04:19:22.353Z,4.50
2019-04-21T04:21:51.115Z,4.30
2019-04-21T04:24:27.311Z,4.20
2019-04-21T04:26:45.478Z,4.10
2019-04-21T04:31:42.642Z,4.00
2019-04-21T04:39:59.954Z,4.10
2019-04-21T04:45:14.975Z,4.70
2019-04-21T04:50:06.757Z,5.50
2019-04-21T04:52:37.775Z,6.00
2019-04-21T04:57:46.908Z,6.50
2019-04-21T05:00:18.119Z,6.80
2019-04-21T05:07:42.873Z,7.40
2019-04-21T05:10:07.476Z,7.60
2019-04-21T05:12:44.275Z,8.10
2019-04-21T05:15:34.477Z,8.60
2019-04-21T05:20:13.633Z,9.10
2019-04-21T05:22:35.241Z,9.20
2019-04-21T05:25:05.240Z,8.70
2019-04-21T05:27:42.943Z,9.00
2019-04-21T05:30:29.070Z,9.40
2019-04-21T05:33:05.651Z,9.60
2019-04-21T05:35:49.295Z,9.80
2019-04-21T05:38:55.516Z,9.90
2019-04-21T05:41:17.593Z,10.20
2019-04-21T05:43:56.366Z,10.40
2019-04-21T05:46:32.259Z,10.70
2019-04-21T05:49:05.839Z,11.10
2019-04-21T05:51:31.732Z,11.70
2019-04-21T05:54:17.762Z,12.10
2019-04-21T05:56:36.474Z,11.90
2019-04-21T05:59:07.753Z,11.90
2019-04-21T06:01:38.652Z,12.00
2019-04-21T06:04:17.445Z,12.30
2019-04-21T06:06:40.796Z,12.50
2019-04-21T06:09:11.495Z,12.60
2019-04-21T06:11:42.399Z,12.50
2019-04-21T06:14:16.956Z,12.50
2019-04-21T06:16:48.253Z,12.50
2019-04-21T06:19:29.402Z,12.70
2019-04-21T06:21:44.914Z,12.70
2019-04-21T06:24:18.823Z,12.60
2019-04-21T06:27:04.932Z,12.50
2019-04-21T06:29:26.456Z,12.70
2019-04-21T06:34:24.611Z,13.00
2019-04-21T06:37:21.877Z,13.00
2019-04-21T06:42:02.468Z,12.90
2019-04-21T06:44:41.577Z,13.00
2019-04-21T06:47:17.597Z,13.20
2019-04-21T06:49:40.475Z,13.20
2019-04-21T06:52:30.503Z,13.50
2019-04-21T06:57:18.193Z,14.00
2019-04-21T06:59:40.223Z,14.10
2019-04-21T07:02:33.355Z,14.00
2019-04-21T07:04:50.458Z,14.40
2019-04-21T07:07:18.703Z,14.70
2019-04-21T07:09:52.762Z,15.30
2019-04-21T07:12:13.916Z,15.60
2019-04-21T07:14:49.914Z,15.60
2019-04-21T07:17:26.934Z,15.70
2019-04-21T07:19:55.425Z,15.60
2019-04-21T07:22:24.460Z,16.20
2019-04-21T07:24:49.448Z,16.10
2019-04-21T07:27:22.912Z,16.20
2019-04-21T07:29:56.683Z,16.10
2019-04-21T07:32:20.693Z,16.10
2019-04-21T07:34:57.550Z,16.40
2019-04-21T07:37:25.613Z,16.60
2019-04-21T07:39:54.967Z,16.80
2019-04-21T07:42:21.785Z,17.30
2019-04-21T07:44:54.788Z,17.40
2019-04-21T07:47:37.251Z,17.50
2019-04-21T07:50:14.633Z,17.70
2019-04-21T07:53:08.354Z,17.80
2019-04-21T07:57:41.698Z,17.70
2019-04-21T08:02:54.055Z,17.70
2019-04-21T08:05:37.597Z,17.90
2019-04-21T08:10:21.210Z,18.20
2019-04-21T08:12:54.278Z,18.60
2019-04-21T08:15:27.536Z,19.00
2019-04-21T08:18:02.629Z,19.30
2019-04-21T08:20:28.492Z,19.40
2019-04-21T08:23:02.556Z,19.50
2019-04-21T08:25:53.012Z,19.70
2019-04-21T08:28:01.482Z,20.10
2019-04-21T08:30:36.539Z,20.10
2019-04-21T08:33:14.234Z,20.10
2019-04-21T08:36:01.092Z,20.60
2019-04-21T08:38:05.366Z,20.90
2019-04-21T08:40:36.905Z,20.90
2019-04-21T08:43:02.502Z,20.60
2019-04-21T08:45:43.248Z,20.70
2019-04-21T08:48:10.220Z,20.90
2019-04-21T08:50:37.636Z,21.30
2019-04-21T08:53:15.605Z,21.10
2019-04-21T08:55:58.541Z,21.10
2019-04-21T08:58:29.335Z,21.10
2019-04-21T09:01:08.775Z,21.00
2019-04-21T09:03:56.102Z,21.40
2019-04-21T09:08:54.920Z,20.60
2019-04-21T09:11:23.585Z,20.70
2019-04-21T09:13:57.238Z,21.10
2019-04-21T09:16:29.403Z,21.30
2019-04-21T09:18:50.292Z,21.30
2019-04-21T09:21:25.666Z,21.40
2019-04-21T09:23:56.048Z,21.10
2019-04-21T09:26:34.234Z,21.20
2019-04-21T09:28:52.228Z,21.30
2019-04-21T09:31:12.281Z,21.60
2019-04-21T09:33:48.412Z,22.20
2019-04-21T09:36:15.248Z,22.40
2019-04-21T09:38:45.697Z,21.20
2019-04-21T09:41:17.539Z,21.80
2019-04-21T09:43:48.953Z,22.00
2019-04-21T09:46:16.136Z,22.40
2019-04-21T09:48:53.776Z,22.50
2019-04-21T09:51:16.136Z,22.50
2019-04-21T09:53:56.161Z,22.40
2019-04-21T09:56:23.867Z,21.70
2019-04-21T09:58:51.666Z,21.90
2019-04-21T10:01:27.055Z,22.40
2019-04-21T10:03:53.709Z,21.90
2019-04-21T10:06:20.826Z,22.10
2019-04-21T10:08:57.558Z,21.70
2019-04-21T10:11:22.305Z,21.50
2019-04-21T10:13:52.930Z,21.60
2019-04-21T10:16:44.955Z,21.90
2019-04-21T10:19:15.318Z,22.00
2019-04-21T10:21:44.511Z,21.60
2019-04-21T10:24:13.506Z,21.50
2019-04-21T10:26:43.102Z,21.10
2019-04-21T10:29:19.800Z,21.40
2019-04-21T10:31:44.860Z,21.40
2019-04-21T10:34:13.950Z,21.30
2019-04-21T10:36:43.238Z,21.40
2019-04-21T10:39:13.576Z,21.30
2019-04-21T10:41:43.532Z,21.20
2019-04-21T10:44:13.513Z,21.20
2019-04-21T10:46:44.180Z,21.10
2019-04-21T10:49:13.153Z,21.40
2019-04-21T10:51:43.277Z,21.50
2019-04-21T10:54:13.601Z,21.50
2019-04-21T10:56:44.474Z,21.40
2019-04-21T10:59:14.348Z,21.20
2019-04-21T11:01:43.300Z,21.50
2019-04-21T11:04:34.629Z,21.70
2019-04-21T11:07:06.720Z,21.70
2019-04-21T11:09:31.882Z,21.80
2019-04-21T11:12:01.991Z,21.90
2019-04-21T11:14:31.507Z,21.80
2019-04-21T11:17:00.944Z,22.00
2019-04-21T11:19:30.785Z,21.70
2019-04-21T11:22:00.871Z,21.80
2019-04-21T11:24:31.384Z,21.80
2019-04-21T11:27:01.838Z,21.80
2019-04-21T11:29:31.128Z,21.90
2019-04-21T11:32:01.032Z,21.40
2019-04-21T11:34:31.459Z,21.90
2019-04-21T11:37:01.856Z,21.80
2019-04-21T11:39:41.987Z,22.10
2019-04-21T11:42:07.764Z,22.10
2019-04-21T11:44:37.338Z,22.20
2019-04-21T11:47:10.137Z,22.30
2019-04-21T11:49:39.233Z,22.60
2019-04-21T11:52:27.585Z,22.80
2019-04-21T11:54:56.413Z,22.80
2019-04-21T11:57:30.444Z,22.80
2019-04-21T11:59:57.514Z,22.90
2019-04-21T12:02:27.641Z,22.30
2019-04-21T12:04:57.267Z,22.70
2019-04-21T12:07:27.237Z,22.20
2019-04-21T12:09:57.457Z,22.20
2019-04-21T12:12:27.514Z,22.50
2019-04-21T12:14:57.625Z,22.70
2019-04-21T12:17:27.868Z,22.50
2019-04-21T12:19:58.724Z,22.00
2019-04-21T12:22:31.981Z,21.90
2019-04-21T12:24:58.797Z,22.20
2019-04-21T12:27:27.839Z,22.10
2019-04-21T12:29:57.722Z,22.10
2019-04-21T12:32:44.658Z,22.40
2019-04-21T12:35:15.765Z,22.40
2019-04-21T12:37:45.214Z,22.00
2019-04-21T12:40:14.985Z,22.10
2019-04-21T12:42:45.413Z,22.40
2019-04-21T12:45:15.268Z,22.50
2019-04-21T12:47:46.005Z,22.60
2019-04-21T12:50:17.011Z,22.40
2019-04-21T12:52:47.344Z,22.70
2019-04-21T12:55:17.590Z,22.50
2019-04-21T12:57:47.651Z,22.80
2019-04-21T13:00:20.743Z,22.90
2019-04-21T13:02:50.296Z,22.90
2019-04-21T13:05:19.967Z,22.50
2019-04-21T13:07:49.336Z,22.50
2019-04-21T13:10:20.101Z,22.60
2019-04-21T13:12:50.064Z,22.70
2019-04-21T13:15:19.862Z,23.00
2019-04-21T13:17:50.225Z,22.90
2019-04-21T13:20:21.065Z,23.50
2019-04-21T13:22:50.314Z,23.80
2019-04-21T13:25:20.099Z,23.40
2019-04-21T13:27:49.790Z,22.90
2019-04-21T13:30:20.141Z,23.00
2019-04-21T13:32:51.250Z,22.90
2019-04-21T13:35:21.230Z,22.90
2019-04-21T13:37:52.243Z,22.70
2019-04-21T13:40:57.068Z,22.70
2019-04-21T13:43:12.451Z,22.90
2019-04-21T13:45:42.049Z,23.20
2019-04-21T13:48:12.743Z,23.20
2019-04-21T13:50:43.646Z,23.20
2019-04-21T13:53:14.519Z,22.80
2019-04-21T13:55:44.664Z,23.00
2019-04-21T13:58:14.570Z,23.20
2019-04-21T14:00:45.451Z,23.10
2019-04-21T14:03:14.806Z,23.30
2019-04-21T14:05:44.511Z,23.20
2019-04-21T14:08:15.437Z,23.30
2019-04-21T14:10:44.574Z,23.50
2019-04-21T14:13:14.357Z,23.80
2019-04-21T14:15:46.262Z,23.90
2019-04-21T14:18:14.997Z,24.10
2019-04-21T14:20:44.985Z,24.10
2019-04-21T14:23:24.302Z,24.30
2019-04-21T14:25:45.783Z,24.30
2019-04-21T14:28:15.660Z,24.50
2019-04-21T14:30:46.139Z,24.40
2019-04-21T14:33:16.197Z,24.30
2019-04-21T14:35:45.238Z,24.30
2019-04-21T14:38:14.504Z,24.00
2019-04-21T14:40:44.077Z,24.10
2019-04-21T14:43:14.297Z,24.30
2019-04-21T14:45:54.715Z,24.20
2019-04-21T14:48:43.147Z,24.30
2019-04-21T14:51:23.056Z,23.70
2019-04-21T14:54:08.004Z,23.30
2019-04-21T14:56:37.452Z,23.30
2019-04-21T14:59:07.230Z,23.20
2019-04-21T15:01:37.731Z,22.90
2019-04-21T15:04:07.999Z,23.20
2019-04-21T15:06:37.307Z,23.40
2019-04-21T15:09:07.633Z,23.50
2019-04-21T15:11:38.079Z,23.10
2019-04-21T15:14:08.138Z,23.10
2019-04-21T15:16:38.599Z,23.40
2019-04-21T15:19:08.652Z,23.60
2019-04-21T15:21:38.183Z,23.70
2019-04-21T15:24:08.676Z,23.70
2019-04-21T15:26:38.125Z,23.50
2019-04-21T15:29:08.761Z,23.30
2019-04-21T15:31:41.704Z,23.10
2019-04-21T15:34:09.076Z,23.30
2019-04-21T15:36:38.227Z,23.30
2019-04-21T15:39:09.956Z,23.10
2019-04-21T15:41:39.022Z,23.20
2019-04-21T15:44:09.722Z,22.90
2019-04-21T15:46:39.923Z,22.80
2019-04-21T15:49:09.316Z,22.70
2019-04-21T15:51:39.786Z,22.50
2019-04-21T15:54:08.973Z,22.50
2019-04-21T15:57:06.907Z,22.50
2019-04-21T15:59:55.418Z,22.30
2019-04-21T16:02:42.549Z,22.20
2019-04-21T16:05:13.049Z,22.20
2019-04-21T16:07:42.526Z,22.20
2019-04-21T16:10:26.521Z,22.30
2019-04-21T16:12:43.666Z,22.20
2019-04-21T16:15:14.430Z,22.20
2019-04-21T16:17:43.695Z,22.10
2019-04-21T16:20:15.360Z,22.20
2019-04-21T16:22:44.620Z,22.50
2019-04-21T16:25:14.996Z,22.70
2019-04-21T16:27:43.898Z,22.70
2019-04-21T16:30:13.528Z,22.60
2019-04-21T16:32:43.856Z,22.50
2019-04-21T16:35:14.999Z,22.40
2019-04-21T16:37:43.869Z,22.20
2019-04-21T16:40:13.761Z,22.30
2019-04-21T16:42:42.744Z,22.20
2019-04-21T16:45:14.774Z,21.80
2019-04-21T16:47:47.002Z,21.70
2019-04-21T16:50:17.290Z,21.40
2019-04-21T16:52:54.211Z,21.40
2019-04-21T16:55:35.250Z,21.30
2019-04-21T16:58:26.608Z,21.20
2019-04-21T17:01:04.544Z,21.10
2019-04-21T17:03:30.640Z,21.00
2019-04-21T17:06:00.501Z,21.00
2019-04-21T17:08:31.744Z,20.90
2019-04-21T17:11:10.417Z,20.90
2019-04-21T17:13:33.535Z,20.80
2019-04-21T17:16:32.636Z,20.80
2019-04-21T17:18:48.891Z,20.70
2019-04-21T17:21:06.630Z,20.60
2019-04-21T17:23:35.642Z,20.50
2019-04-21T17:26:05.433Z,20.40
2019-04-21T17:28:34.625Z,20.30
2019-04-21T17:31:04.678Z,20.20
2019-04-21T17:33:35.465Z,20.10
2019-04-21T17:36:05.278Z,20.00
2019-04-21T17:38:34.748Z,20.00
2019-04-21T17:41:19.379Z,20.00
2019-04-21T17:43:37.329Z,19.90
2019-04-21T17:46:06.935Z,19.80
2019-04-21T17:48:36.663Z,19.70
2019-04-21T17:51:27.645Z,19.60
2019-04-21T17:54:03.198Z,19.50
2019-04-21T17:56:59.556Z,19.40
2019-04-21T17:59:38.717Z,19.20
2019-04-21T18:01:54.595Z,19.10
2019-04-21T18:04:28.534Z,18.80
2019-04-21T18:07:17.247Z,18.50
2019-04-21T18:09:58.640Z,18.30
2019-04-21T18:12:24.114Z,18.00
2019-04-21T18:14:51.866Z,17.80
2019-04-21T18:17:10.722Z,17.60
2019-04-21T18:19:43.603Z,17.40
2019-04-21T18:22:45.539Z,17.20
2019-04-21T18:25:27.949Z,17.00
2019-04-21T18:27:46.691Z,16.70
2019-04-21T18:30:38.118Z,16.40
2019-04-21T18:33:15.494Z,16.20
2019-04-21T18:35:58.087Z,16.10
2019-04-21T18:38:57.184Z,15.90
2019-04-21T18:41:10.188Z,15.70
2019-04-21T18:44:10.404Z,15.60
2019-04-21T18:46:38.601Z,15.40
2019-04-21T18:49:09.273Z,15.20
2019-04-21T18:51:59.676Z,15.00
2019-04-21T18:54:43.532Z,14.80
2019-04-21T18:57:05.414Z,14.60
2019-04-21T18:59:31.124Z,14.50
2019-04-21T19:02:02.000Z,14.30
2019-04-21T19:04:32.390Z,14.20
2019-04-21T19:07:15.556Z,14.10
2019-04-21T19:10:09.998Z,14.10
2019-04-21T19:12:25.338Z,14.00
2019-04-21T19:14:46.377Z,13.90
2019-04-21T19:17:48.660Z,13.90
2019-04-21T19:19:56.352Z,13.90
2019-04-21T19:22:18.505Z,14.10
2019-04-21T19:24:54.886Z,14.10
2019-04-21T19:27:22.712Z,14.10
2019-04-21T19:30:05.762Z,14.00
2019-04-21T19:32:25.190Z,13.90
2019-04-21T19:34:40.889Z,13.90
2019-04-21T19:37:13.361Z,13.90
2019-04-21T19:39:50.794Z,13.80
2019-04-21T19:42:18.232Z,13.70
2019-04-21T19:44:57.893Z,13.60
2019-04-21T19:47:28.102Z,13.50
2019-04-21T19:50:01.937Z,13.40
2019-04-21T19:52:26.630Z,13.30
2019-04-21T19:54:46.766Z,13.20
2019-04-21T19:57:13.690Z,13.10
2019-04-21T19:59:48.534Z,13.10
2019-04-21T20:02:14.256Z,13.10
2019-04-21T20:04:52.152Z,13.00
2019-04-21T20:07:27.496Z,12.90
2019-04-21T20:10:06.744Z,12.80
2019-04-21T20:12:40.152Z,12.90
2019-04-21T20:15:10.893Z,13.00
2019-04-21T20:17:36.451Z,12.90
2019-04-21T20:19:49.972Z,13.00
2019-04-21T20:22:24.014Z,13.20
2019-04-21T20:24:58.610Z,13.30
2019-04-21T20:27:36.275Z,13.60
2019-04-21T20:30:06.801Z,13.80
2019-04-21T20:32:43.046Z,14.00
2019-04-21T20:35:14.709Z,14.00
2019-04-21T20:37:43.782Z,14.10
2019-04-21T20:40:02.202Z,14.20
2019-04-21T20:42:40.222Z,14.10
2019-04-21T20:45:29.758Z,14.20
2019-04-21T20:47:35.599Z,14.10
2019-04-21T20:50:12.653Z,14.10
2019-04-21T20:52:47.673Z,14.00
2019-04-21T20:55:12.794Z,13.50
2019-04-21T20:57:41.862Z,13.40
2019-04-21T21:00:19.116Z,13.40
2019-04-21T21:02:58.953Z,13.50
2019-04-21T21:05:17.709Z,13.70
2019-04-21T21:07:55.917Z,13.80
2019-04-21T21:10:20.892Z,13.90
2019-04-21T21:12:57.333Z,13.90
2019-04-21T21:15:25.238Z,13.90
2019-04-21T21:18:06.215Z,13.80
2019-04-21T21:20:32.497Z,13.50
2019-04-21T21:22:56.238Z,13.80
2019-04-21T21:25:43.319Z,13.80
2019-04-21T21:27:55.272Z,14.00
2019-04-21T21:30:29.023Z,14.40
2019-04-21T21:33:08.388Z,14.50
2019-04-21T21:35:31.066Z,14.80
2019-04-21T21:38:10.010Z,15.10
2019-04-21T21:40:40.686Z,15.00
2019-04-21T21:42:51.191Z,15.00
2019-04-21T21:45:24.859Z,15.00
2019-04-21T21:48:04.586Z,15.10
2019-04-21T21:50:29.836Z,15.30
2019-04-21T21:53:02.202Z,15.20
2019-04-21T21:55:23.813Z,15.20
2019-04-21T21:57:58.116Z,15.30
2019-04-21T22:00:27.903Z,15.30
2019-04-21T22:02:59.182Z,15.40
2019-04-21T22:05:33.097Z,15.40
2019-04-21T22:07:58.770Z,15.50
2019-04-21T22:10:29.321Z,15.30
2019-04-21T22:13:06.290Z,15.40
2019-04-21T22:15:33.245Z,15.40
2019-04-21T22:18:22.250Z,15.40
2019-04-21T22:20:47.609Z,15.30
2019-04-21T22:23:11.436Z,15.20
2019-04-21T22:25:36.787Z,15.20
2019-04-21T22:28:04.388Z,15.20
2019-04-21T22:30:40.274Z,15.30
2019-04-21T22:33:10.116Z,15.30
2019-04-21T22:35:42.642Z,15.30
2019-04-21T22:38:19.123Z,15.30
2019-04-21T22:40:50.818Z,15.30
2019-04-21T22:43:19.217Z,15.20
2019-04-21T22:45:39.353Z,15.20
2019-04-21T22:48:14.367Z,15.20
2019-04-21T22:50:42.455Z,15.10
2019-04-21T22:53:13.757Z,15.00
2019-04-21T22:55:43.093Z,15.00
2019-04-21T22:58:16.603Z,15.00
2019-04-21T23:00:48.627Z,14.90
2019-04-21T23:03:19.475Z,14.80
2019-04-21T23:05:48.159Z,14.80
2019-04-21T23:08:17.136Z,14.70
2019-04-21T23:10:51.263Z,14.60
2019-04-21T23:13:23.007Z,14.50
2019-04-21T23:15:54.898Z,14.60
2019-04-21T23:18:30.501Z,14.60
2019-04-21T23:21:08.841Z,14.30
2019-04-21T23:23:39.804Z,14.00
2019-04-21T23:26:09.037Z,13.90
2019-04-21T23:28:46.309Z,13.80
2019-04-21T23:31:11.105Z,13.80
2019-04-21T23:33:25.324Z,13.60
2019-04-21T23:36:02.672Z,13.50
2019-04-21T23:38:31.809Z,13.60
2019-04-21T23:41:01.693Z,13.70
2019-04-21T23:43:31.074Z,13.70
2019-04-21T23:46:04.270Z,13.70
2019-04-21T23:48:42.478Z,13.50
2019-04-21T23:51:13.508Z,13.80
2019-04-21T23:53:31.133Z,13.70
2019-04-21T23:56:01.290Z,13.60
2019-04-21T23:58:33.365Z,13.60
